KQBF/QBF METAR and TAF weather

Enter ICAO airport designator
Station Type Date Time Source
KQBF METAR 2019/08/19 00:56 UTC NOAA

KQBF 190056Z AUTO 00000KT 9999 FEW150 25/22 A2991 RMK AO2 SLP085 WND DATA ESTMD T02460221


Station Type Date Time Source
KQBF Decoded METAR 2019/08/19 00:56 UTC NOAA

Station name not available
Aug 18, 2019 - 08:56 PM EDT / 2019.08.19 0056 UTC
Wind: Calm:0
Visibility: greater than 7 mile(s):0
Sky conditions: mostly clear
Temperature: 76.3 F (24.6 C)
Dew Point: 71.8 F (22.1 C)
Relative Humidity: 85%
Pressure (altimeter): 29.91 in. Hg (1012 hPa)
ob: KQBF 190056Z AUTO 00000KT 9999 FEW150 25/22 A2991 RMK AO2 SLP085 WND DATA ESTMD T02460221
cycle: 1

Station Type Date Time Source
KQBF TAF 2009/08/24 17:21 UTC NOAA

TAF
AMD KQBF 241721Z 241313 06010G20KT 9999 FEW025 SCT160 BKN230 QNH2915INS
BECMG 2223 100020G25KT 9000 -SHRA SCT009 BKN025 OVC035 610505 QNH2910INS
TEMPO 0209 10025G35KT BKN010
BECMG 1213 09020G25KT 9000 -SHRA SCT015 BKN035 OVC050 610606 T11/15Z T10/00Z
AMD 241744 LIMITED METWATCH 2417 TIL 2507

Example: see airport list